sensor_id;sensor_type;location;lat;lon;timestamp;pressure;altitude;pressure_sealevel;temperature;humidity
39341;BME280;25059;52.132;21.062;2024-03-07T06:34:54;101438.38;;;-0.76;100.00
39341;BME280;25059;52.132;21.062;2024-03-07T06:37:42;101442.16;;;-0.62;100.00
39341;BME280;25059;52.132;21.062;2024-03-07T06:40:27;101440.63;;;-0.54;100.00
39341;BME280;25059;52.132;21.062;2024-03-07T06:43:11;101439.00;;;-0.50;100.00
39341;BME280;25059;52.132;21.062;2024-03-07T06:45:56;101432.44;;;-0.36;100.00
39341;BME280;25059;52.132;21.062;2024-03-07T06:48:42;101429.41;;;-0.18;100.00
39341;BME280;25059;52.132;21.062;2024-03-07T06:51:28;101425.47;;;-0.01;100.00
39341;BME280;25059;52.132;21.062;2024-03-07T06:54:13;101439.66;;;0.18;100.00
39341;BME280;25059;52.132;21.062;2024-03-07T06:56:57;101433.78;;;0.26;100.00
39341;BME280;25059;52.132;21.062;2024-03-07T06:59:42;101429.59;;;0.31;100.00
39341;BME280;25059;52.132;21.062;2024-03-07T07:02:27;101437.63;;;0.45;100.00
39341;BME280;25059;52.132;21.062;2024-03-07T07:05:16;101443.13;;;0.62;100.00
39341;BME280;25059;52.132;21.062;2024-03-07T07:08:03;101435.94;;;0.94;100.00
39341;BME280;25059;52.132;21.062;2024-03-07T07:10:50;101443.91;;;1.06;100.00
39341;BME280;25059;52.132;21.062;2024-03-07T07:13:41;101438.91;;;1.15;100.00
39341;BME280;25059;52.132;21.062;2024-03-07T07:16:36;101417.13;;;1.04;100.00
39341;BME280;25059;52.132;21.062;2024-03-07T07:22:56;101443.41;;;1.27;100.00
39341;BME280;25059;52.132;21.062;2024-03-07T07:25:42;101444.41;;;1.35;100.00
39341;BME280;25059;52.132;21.062;2024-03-07T07:28:30;101420.63;;;1.08;100.00
39341;BME280;25059;52.132;21.062;2024-03-07T07:31:19;101439.38;;;1.44;100.00
39341;BME280;25059;52.132;21.062;2024-03-07T07:34:21;101444.69;;;1.53;100.00
39341;BME280;25059;52.132;21.062;2024-03-07T07:37:14;101433.56;;;1.60;100.00
39341;BME280;25059;52.132;21.062;2024-03-07T07:40:32;101435.38;;;1.66;100.00
39341;BME280;25059;52.132;21.062;2024-03-07T07:43:30;101453.56;;;1.68;100.00
39341;BME280;25059;52.132;21.062;2024-03-07T07:46:22;101414.66;;;1.66;100.00
39341;BME280;25059;52.132;21.062;2024-03-07T07:49:19;101431.53;;;1.99;100.00
39341;BME280;25059;52.132;21.062;2024-03-07T07:52:15;101437.78;;;2.14;100.00
39341;BME280;25059;52.132;21.062;2024-03-07T07:55:04;101397.78;;;1.97;100.00
39341;BME280;25059;52.132;21.062;2024-03-07T07:58:04;101437.06;;;2.26;100.00
39341;BME280;25059;52.132;21.062;2024-03-07T08:01:21;101441.47;;;2.33;100.00
39341;BME280;25059;52.132;21.062;2024-03-07T08:20:49;101430.66;;;2.72;100.00
39341;BME280;25059;52.132;21.062;2024-03-07T08:24:33;101433.50;;;2.95;100.00
39341;BME280;25059;52.132;21.062;2024-03-07T08:27:22;101434.41;;;2.99;100.00
39341;BME280;25059;52.132;21.062;2024-03-07T08:30:24;101442.22;;;3.02;100.00
39341;BME280;25059;52.132;21.062;2024-03-07T08:34:07;101405.75;;;2.89;100.00
39341;BME280;25059;52.132;21.062;2024-03-07T08:37:07;101436.25;;;3.12;100.00
39341;BME280;25059;52.132;21.062;2024-03-07T08:40:22;101428.63;;;3.33;100.00
39341;BME280;25059;52.132;21.062;2024-03-07T08:43:26;101420.97;;;3.50;100.00
39341;BME280;25059;52.132;21.062;2024-03-07T08:46:20;101428.84;;;3.61;100.00
39341;BME280;25059;52.132;21.062;2024-03-07T08:49:10;101425.44;;;3.71;100.00
39341;BME280;25059;52.132;21.062;2024-03-07T09:12:19;101411.91;;;4.40;100.00
39341;BME280;25059;52.132;21.062;2024-03-07T09:15:19;101411.06;;;4.50;100.00
39341;BME280;25059;52.132;21.062;2024-03-07T09:18:06;101411.94;;;4.59;100.00
39341;BME280;25059;52.132;21.062;2024-03-07T09:20:53;101393.72;;;4.63;100.00
39341;BME280;25059;52.132;21.062;2024-03-07T09:23:54;101407.66;;;4.74;100.00
39341;BME280;25059;52.132;21.062;2024-03-07T09:26:39;101405.06;;;4.85;100.00
39341;BME280;25059;52.132;21.062;2024-03-07T09:29:29;101410.28;;;5.03;100.00
39341;BME280;25059;52.132;21.062;2024-03-07T09:32:22;101409.41;;;4.89;100.00
39341;BME280;25059;52.132;21.062;2024-03-07T09:35:38;101415.50;;;5.02;100.00
39341;BME280;25059;52.132;21.062;2024-03-07T09:38:32;101384.22;;;4.76;100.00
39341;BME280;25059;52.132;21.062;2024-03-07T09:41:17;101391.16;;;4.86;100.00
39341;BME280;25059;52.132;21.062;2024-03-07T09:44:06;101410.28;;;5.09;100.00
39341;BME280;25059;52.132;21.062;2024-03-07T09:47:14;101377.28;;;4.99;100.00
39341;BME280;25059;52.132;21.062;2024-03-07T10:11:25;101375.53;;;8.70;72.94
39341;BME280;25059;52.132;21.062;2024-03-07T10:14:38;101361.81;;;11.19;59.08
39341;BME280;25059;52.132;21.062;2024-03-07T10:17:26;101365.56;;;12.38;51.31
39341;BME280;25059;52.132;21.062;2024-03-07T10:20:23;101367.75;;;13.60;44.00
39341;BME280;25059;52.132;21.062;2024-03-07T10:23:10;101339.66;;;13.82;41.22
39341;BME280;25059;52.132;21.062;2024-03-07T10:26:10;101366.34;;;14.00;39.67
39341;BME280;25059;52.132;21.062;2024-03-07T10:28:56;101365.19;;;14.07;41.44
39341;BME280;25059;52.132;21.062;2024-03-07T10:31:52;101374.31;;;14.68;38.86
39341;BME280;25059;52.132;21.062;2024-03-07T10:34:40;101362.75;;;14.71;38.24
39341;BME280;25059;52.132;21.062;2024-03-07T10:37:42;101339.91;;;14.90;37.21
39341;BME280;25059;52.132;21.062;2024-03-07T10:40:54;101331.94;;;15.52;35.43
39341;BME280;25059;52.132;21.062;2024-03-07T10:43:50;101343.41;;;16.69;34.06
39341;BME280;25059;52.132;21.062;2024-03-07T11:07:58;101337.34;;;18.52;29.81
39341;BME280;25059;52.132;21.062;2024-03-07T11:11:22;101357.84;;;19.13;28.40
39341;BME280;25059;52.132;21.062;2024-03-07T11:14:51;101339.06;;;19.00;28.38
39341;BME280;25059;52.132;21.062;2024-03-07T11:17:57;101350.41;;;18.57;28.84
39341;BME280;25059;52.132;21.062;2024-03-07T11:21:02;101332.22;;;18.81;28.38
39341;BME280;25059;52.132;21.062;2024-03-07T11:24:06;101324.78;;;19.31;28.37
39341;BME280;25059;52.132;21.062;2024-03-07T11:27:03;101339.38;;;19.84;27.49
39341;BME280;25059;52.132;21.062;2024-03-07T11:30:05;101348.00;;;20.59;28.29
39341;BME280;25059;52.132;21.062;2024-03-07T11:32:57;101340.69;;;21.29;26.51
39341;BME280;25059;52.132;21.062;2024-03-07T11:35:49;101316.50;;;21.43;25.72
39341;BME280;25059;52.132;21.062;2024-03-07T11:38:34;101308.59;;;21.42;25.48
39341;BME280;25059;52.132;21.062;2024-03-07T11:41:19;101302.19;;;21.05;26.18
39341;BME280;25059;52.132;21.062;2024-03-07T11:48:12;101329.88;;;21.31;25.56
39341;BME280;25059;52.132;21.062;2024-03-07T11:51:19;101305.72;;;21.83;24.82
39341;BME280;25059;52.132;21.062;2024-03-07T11:54:14;101289.84;;;22.42;24.46
39341;BME280;25059;52.132;21.062;2024-03-07T11:57:35;101316.38;;;22.58;23.19
39341;BME280;25059;52.132;21.062;2024-03-07T12:08:02;101310.91;;;23.42;23.84
39341;BME280;25059;52.132;21.062;2024-03-07T12:10:57;101318.66;;;22.75;24.58
39341;BME280;25059;52.132;21.062;2024-03-07T12:13:44;101298.63;;;22.44;24.93
39341;BME280;25059;52.132;21.062;2024-03-07T12:16:31;101315.72;;;22.67;23.40
39341;BME280;25059;52.132;21.062;2024-03-07T12:19:16;101300.22;;;22.83;24.19
39341;BME280;25059;52.132;21.062;2024-03-07T12:22:13;101310.16;;;22.57;24.31
39341;BME280;25059;52.132;21.062;2024-03-07T12:25:02;101306.22;;;22.86;24.24
39341;BME280;25059;52.132;21.062;2024-03-07T12:28:01;101296.66;;;23.06;24.11
39341;BME280;25059;52.132;21.062;2024-03-07T12:30:51;101297.13;;;23.00;23.76
39341;BME280;25059;52.132;21.062;2024-03-07T12:33:39;101299.09;;;23.09;23.62
39341;BME280;25059;52.132;21.062;2024-03-07T12:36:32;101296.03;;;24.50;23.15
39341;BME280;25059;52.132;21.062;2024-03-07T12:39:38;101295.84;;;23.63;22.42
39341;BME280;25059;52.132;21.062;2024-03-07T12:43:19;101301.16;;;24.53;21.30
39341;BME280;25059;52.132;21.062;2024-03-07T12:46:20;101268.28;;;25.55;20.38
39341;BME280;25059;52.132;21.062;2024-03-07T12:50:35;101288.78;;;25.46;21.37
39341;BME280;25059;52.132;21.062;2024-03-07T12:54:47;101227.84;;;24.51;21.04
39341;BME280;25059;52.132;21.062;2024-03-07T12:58:12;101296.72;;;25.48;21.25
39341;BME280;25059;52.132;21.062;2024-03-07T13:01:17;101252.59;;;25.90;20.13
39341;BME280;25059;52.132;21.062;2024-03-07T13:04:51;101201.91;;;26.53;19.85
39341;BME280;25059;52.132;21.062;2024-03-07T13:07:46;101289.34;;;27.47;18.86
39341;BME280;25059;52.132;21.062;2024-03-07T13:10:31;101272.22;;;28.58;17.72
39341;BME280;25059;52.132;21.062;2024-03-07T13:13:34;101237.41;;;28.00;18.13
39341;BME280;25059;52.132;21.062;2024-03-07T13:16:38;101275.75;;;27.86;18.24
39341;BME280;25059;52.132;21.062;2024-03-07T13:20:08;101223.59;;;28.48;17.78
39341;BME280;25059;52.132;21.062;2024-03-07T13:23:46;101272.38;;;30.21;17.00
39341;BME280;25059;52.132;21.062;2024-03-07T13:26:53;101250.81;;;30.87;17.45
39341;BME280;25059;52.132;21.062;2024-03-07T13:29:45;101235.22;;;31.76;15.84
39341;BME280;25059;52.132;21.062;2024-03-07T13:32:33;101249.13;;;32.29;15.44
39341;BME280;25059;52.132;21.062;2024-03-07T13:36:03;101264.88;;;33.62;14.24
39341;BME280;25059;52.132;21.062;2024-03-07T13:38:58;101267.59;;;33.33;14.37
39341;BME280;25059;52.132;21.062;2024-03-07T13:41:49;101247.34;;;34.16;14.06
39341;BME280;25059;52.132;21.062;2024-03-07T13:44:37;101224.28;;;34.18;13.95
39341;BME280;25059;52.132;21.062;2024-03-07T13:47:23;101232.72;;;34.38;14.07
39341;BME280;25059;52.132;21.062;2024-03-07T13:50:10;101242.22;;;35.34;13.34
39341;BME280;25059;52.132;21.062;2024-03-07T13:53:02;101258.03;;;34.68;13.17
39341;BME280;25059;52.132;21.062;2024-03-07T14:02:09;101263.59;;;35.80;12.72
39341;BME280;25059;52.132;21.062;2024-03-07T14:27:57;101213.00;;;34.43;13.23
39341;BME280;25059;52.132;21.062;2024-03-07T14:30:55;101252.69;;;34.60;13.58
39341;BME280;25059;52.132;21.062;2024-03-07T14:36:53;101247.88;;;34.62;13.01
39341;BME280;25059;52.132;21.062;2024-03-07T14:39:42;101240.84;;;34.95;13.47
39341;BME280;25059;52.132;21.062;2024-03-07T14:42:28;101221.16;;;34.57;13.31
39341;BME280;25059;52.132;21.062;2024-03-07T14:45:31;101227.00;;;34.76;13.51
39341;BME280;25059;52.132;21.062;2024-03-07T14:48:21;101239.56;;;34.91;13.57
39341;BME280;25059;52.132;21.062;2024-03-07T14:51:08;101237.19;;;35.10;13.61
39341;BME280;25059;52.132;21.062;2024-03-07T14:53:54;101237.66;;;34.13;13.93
39341;BME280;25059;52.132;21.062;2024-03-07T14:56:43;101215.47;;;33.28;14.76
39341;BME280;25059;52.132;21.062;2024-03-07T14:59:33;101213.84;;;33.19;14.20
39341;BME280;25059;52.132;21.062;2024-03-07T15:02:19;101235.91;;;33.32;14.56
39341;BME280;25059;52.132;21.062;2024-03-07T15:05:08;101237.56;;;32.27;14.63
39341;BME280;25059;52.132;21.062;2024-03-07T15:07:54;101188.28;;;31.83;14.63
39341;BME280;25059;52.132;21.062;2024-03-07T15:10:45;101217.66;;;32.72;14.71
39341;BME280;25059;52.132;21.062;2024-03-07T15:13:34;101228.97;;;31.60;15.27
39341;BME280;25059;52.132;21.062;2024-03-07T15:16:20;101216.50;;;30.61;15.30
39341;BME280;25059;52.132;21.062;2024-03-07T15:19:09;101215.28;;;29.55;16.28
39341;BME280;25059;52.132;21.062;2024-03-07T15:21:54;101229.56;;;29.39;16.43
39341;BME280;25059;52.132;21.062;2024-03-07T15:24:43;101209.50;;;28.62;16.76
39341;BME280;25059;52.132;21.062;2024-03-07T15:27:33;101164.78;;;27.50;17.24
39341;BME280;25059;52.132;21.062;2024-03-07T15:30:27;101157.63;;;26.46;19.02
39341;BME280;25059;52.132;21.062;2024-03-07T15:33:25;101190.31;;;24.49;19.33
39341;BME280;25059;52.132;21.062;2024-03-07T15:36:26;101235.09;;;24.39;20.24
39341;BME280;25059;52.132;21.062;2024-03-07T15:39:18;101232.31;;;24.61;20.85
39341;BME280;25059;52.132;21.062;2024-03-07T15:42:10;101204.34;;;22.74;21.56
39341;BME280;25059;52.132;21.062;2024-03-07T15:45:01;101157.88;;;22.03;22.12
39341;BME280;25059;52.132;21.062;2024-03-07T15:47:49;101236.06;;;21.96;22.86
39341;BME280;25059;52.132;21.062;2024-03-07T15:50:38;101170.94;;;21.08;23.71
39341;BME280;25059;52.132;21.062;2024-03-07T15:54:04;101226.94;;;20.03;24.61
39341;BME280;25059;52.132;21.062;2024-03-07T15:57:02;101239.44;;;17.94;27.51
39341;BME280;25059;52.132;21.062;2024-03-07T16:00:18;101247.97;;;17.18;29.21
39341;BME280;25059;52.132;21.062;2024-03-07T16:04:20;101256.25;;;13.97;32.26
39341;BME280;25059;52.132;21.062;2024-03-07T16:07:13;101246.75;;;11.86;37.49
39341;BME280;25059;52.132;21.062;2024-03-07T16:10:35;101272.94;;;10.61;43.26
39341;BME280;25059;52.132;21.062;2024-03-07T16:13:24;101266.16;;;9.72;49.32
39341;BME280;25059;52.132;21.062;2024-03-07T16:16:26;101269.47;;;8.89;58.11
39341;BME280;25059;52.132;21.062;2024-03-07T16:19:12;101287.69;;;8.45;64.45
39341;BME280;25059;52.132;21.062;2024-03-07T16:21:56;101297.34;;;7.75;71.12
39341;BME280;25059;52.132;21.062;2024-03-07T16:24:48;101273.72;;;7.03;82.59
39341;BME280;25059;52.132;21.062;2024-03-07T16:27:35;101293.13;;;6.76;87.29
39341;BME280;25059;52.132;21.062;2024-03-07T16:30:45;101296.84;;;6.43;94.70
39341;BME280;25059;52.132;21.062;2024-03-07T16:33:31;101268.44;;;5.83;99.97
39341;BME280;25059;52.132;21.062;2024-03-07T16:36:17;101265.94;;;5.58;100.00
39341;BME280;25059;52.132;21.062;2024-03-07T16:39:16;101273.88;;;5.24;100.00
39341;BME280;25059;52.132;21.062;2024-03-07T16:42:01;101290.41;;;5.08;100.00
39341;BME280;25059;52.132;21.062;2024-03-07T16:44:51;101306.94;;;4.87;100.00
39341;BME280;25059;52.132;21.062;2024-03-07T16:47:38;101298.22;;;4.50;100.00
39341;BME280;25059;52.132;21.062;2024-03-07T16:50:32;101279.97;;;4.19;100.00
39341;BME280;25059;52.132;21.062;2024-03-07T16:53:35;101319.84;;;4.11;100.00
39341;BME280;25059;52.132;21.062;2024-03-07T17:00:45;101314.47;;;3.67;100.00
39341;BME280;25059;52.132;21.062;2024-03-07T17:03:36;101319.63;;;3.59;100.00
39341;BME280;25059;52.132;21.062;2024-03-07T17:06:26;101313.47;;;3.40;100.00
39341;BME280;25059;52.132;21.062;2024-03-07T17:09:15;101300.38;;;3.27;100.00
39341;BME280;25059;52.132;21.062;2024-03-07T17:12:06;101321.13;;;3.17;100.00
39341;BME280;25059;52.132;21.062;2024-03-07T17:14:57;101308.91;;;3.07;100.00
39341;BME280;25059;52.132;21.062;2024-03-07T17:17:44;101314.09;;;3.06;100.00
39341;BME280;25059;52.132;21.062;2024-03-07T17:20:32;101310.56;;;2.96;100.00
39341;BME280;25059;52.132;21.062;2024-03-07T17:23:18;101307.03;;;2.88;100.00
39341;BME280;25059;52.132;21.062;2024-03-07T17:26:03;101308.69;;;2.77;100.00
39341;BME280;25059;52.132;21.062;2024-03-07T17:28:48;101301.69;;;2.68;100.00
39341;BME280;25059;52.132;21.062;2024-03-07T17:31:35;101312.13;;;2.73;100.00
39341;BME280;25059;52.132;21.062;2024-03-07T17:34:21;101308.50;;;2.55;100.00
39341;BME280;25059;52.132;21.062;2024-03-07T17:37:08;101306.69;;;2.45;100.00
39341;BME280;25059;52.132;21.062;2024-03-07T17:39:56;101302.31;;;2.40;100.00
39341;BME280;25059;52.132;21.062;2024-03-07T17:42:44;101314.38;;;2.38;100.00
39341;BME280;25059;52.132;21.062;2024-03-07T17:45:32;101291.69;;;2.15;100.00
39341;BME280;25059;52.132;21.062;2024-03-07T17:48:20;101291.47;;;1.97;100.00
39341;BME280;25059;52.132;21.062;2024-03-07T17:51:06;101312.44;;;2.15;100.00
39341;BME280;25059;52.132;21.062;2024-03-07T17:53:52;101302.84;;;2.08;100.00
39341;BME280;25059;52.132;21.062;2024-03-07T17:56:41;101315.00;;;2.14;100.00
39341;BME280;25059;52.132;21.062;2024-03-07T17:59:27;101292.34;;;1.96;100.00
39341;BME280;25059;52.132;21.062;2024-03-07T18:02:14;101307.06;;;2.00;100.00
39341;BME280;25059;52.132;21.062;2024-03-07T18:05:01;101307.88;;;1.96;100.00
39341;BME280;25059;52.132;21.062;2024-03-07T18:07:53;101302.78;;;2.02;100.00
39341;BME280;25059;52.132;21.062;2024-03-07T18:10:38;101303.56;;;1.97;100.00
39341;BME280;25059;52.132;21.062;2024-03-07T18:13:23;101307.84;;;1.93;100.00
39341;BME280;25059;52.132;21.062;2024-03-07T18:16:08;101311.13;;;1.78;100.00
39341;BME280;25059;52.132;21.062;2024-03-07T18:18:54;101283.09;;;1.47;100.00
39341;BME280;25059;52.132;21.062;2024-03-07T18:21:40;101319.47;;;1.54;100.00
39341;BME280;25059;52.132;21.062;2024-03-07T18:24:24;101327.91;;;1.40;100.00
39341;BME280;25059;52.132;21.062;2024-03-07T18:27:11;101331.13;;;1.23;100.00
39341;BME280;25059;52.132;21.062;2024-03-07T18:29:56;101329.38;;;1.22;100.00
39341;BME280;25059;52.132;21.062;2024-03-07T18:32:54;101309.47;;;1.18;100.00
39341;BME280;25059;52.132;21.062;2024-03-07T18:35:40;101297.09;;;0.99;100.00
39341;BME280;25059;52.132;21.062;2024-03-07T18:38:27;101305.50;;;0.86;100.00
39341;BME280;25059;52.132;21.062;2024-03-07T18:41:11;101332.22;;;0.83;100.00
39341;BME280;25059;52.132;21.062;2024-03-07T18:43:56;101340.66;;;0.72;100.00
39341;BME280;25059;52.132;21.062;2024-03-07T18:46:40;101337.03;;;0.62;100.00
39341;BME280;25059;52.132;21.062;2024-03-07T18:49:35;101286.50;;;0.32;100.00
39341;BME280;25059;52.132;21.062;2024-03-07T18:52:20;101308.03;;;0.31;100.00
39341;BME280;25059;52.132;21.062;2024-03-07T18:55:10;101335.84;;;0.43;100.00
39341;BME280;25059;52.132;21.062;2024-03-07T19:01:52;101315.19;;;-0.01;100.00
39341;BME280;25059;52.132;21.062;2024-03-07T19:04:37;101327.09;;;-0.09;100.00
39341;BME280;25059;52.132;21.062;2024-03-07T19:07:21;101329.66;;;-0.10;100.00
39341;BME280;25059;52.132;21.062;2024-03-07T19:10:06;101337.41;;;-0.10;100.00
39341;BME280;25059;52.132;21.062;2024-03-07T19:13:01;101315.16;;;-0.02;100.00
39341;BME280;25059;52.132;21.062;2024-03-07T19:15:46;101334.47;;;0.15;100.00
39341;BME280;25059;52.132;21.062;2024-03-07T19:18:33;101347.47;;;0.20;100.00
39341;BME280;25059;52.132;21.062;2024-03-07T19:21:18;101346.59;;;0.19;100.00
39341;BME280;25059;52.132;21.062;2024-03-07T19:24:05;101331.75;;;0.09;100.00
39341;BME280;25059;52.132;21.062;2024-03-07T19:26:53;101319.47;;;-0.03;100.00
39341;BME280;25059;52.132;21.062;2024-03-07T19:29:40;101331.69;;;0.06;100.00
39341;BME280;25059;52.132;21.062;2024-03-07T19:32:29;101317.84;;;0.03;100.00
39341;BME280;25059;52.132;21.062;2024-03-07T19:35:16;101329.16;;;0.09;100.00
39341;BME280;25059;52.132;21.062;2024-03-07T19:38:01;101338.66;;;0.10;100.00
39341;BME280;25059;52.132;21.062;2024-03-07T19:40:51;101329.16;;;0.09;100.00
39341;BME280;25059;52.132;21.062;2024-03-07T19:43:35;101341.38;;;0.16;100.00
39341;BME280;25059;52.132;21.062;2024-03-07T19:46:20;101337.97;;;0.19;100.00
39341;BME280;25059;52.132;21.062;2024-03-07T19:49:05;101316.94;;;0.01;100.00
39341;BME280;25059;52.132;21.062;2024-03-07T19:51:50;101322.81;;;-0.07;100.00
39341;BME280;25059;52.132;21.062;2024-03-07T19:54:37;101296.53;;;-0.29;100.00
39341;BME280;25059;52.132;21.062;2024-03-07T19:57:22;101300.56;;;-0.42;100.00
39341;BME280;25059;52.132;21.062;2024-03-07T20:00:12;101328.16;;;-0.41;100.00
39341;BME280;25059;52.132;21.062;2024-03-07T20:03:04;101338.47;;;-0.41;100.00
39341;BME280;25059;52.132;21.062;2024-03-07T20:05:51;101335.91;;;-0.41;100.00
39341;BME280;25059;52.132;21.062;2024-03-07T20:08:36;101319.25;;;-0.54;100.00
39341;BME280;25059;52.132;21.062;2024-03-07T20:11:21;101331.00;;;-0.68;100.00
39341;BME280;25059;52.132;21.062;2024-03-07T20:14:06;101307.06;;;-0.99;100.00
39341;BME280;25059;52.132;21.062;2024-03-07T20:16:51;101325.31;;;-0.91;100.00
39341;BME280;25059;52.132;21.062;2024-03-07T20:19:35;101328.59;;;-0.98;100.00
39341;BME280;25059;52.132;21.062;2024-03-07T20:22:20;101333.63;;;-1.03;100.00
39341;BME280;25059;52.132;21.062;2024-03-07T20:25:05;101335.31;;;-1.05;100.00
39341;BME280;25059;52.132;21.062;2024-03-07T20:27:51;101331.56;;;-1.17;100.00
39341;BME280;25059;52.132;21.062;2024-03-07T20:30:37;101335.63;;;-1.27;100.00
39341;BME280;25059;52.132;21.062;2024-03-07T20:33:21;101320.56;;;-1.45;100.00
39341;BME280;25059;52.132;21.062;2024-03-07T20:36:08;101329.00;;;-1.50;100.00
39341;BME280;25059;52.132;21.062;2024-03-07T20:38:52;101333.25;;;-1.52;100.00
39341;BME280;25059;52.132;21.062;2024-03-07T20:41:37;101326.09;;;-1.64;100.00
39341;BME280;25059;52.132;21.062;2024-03-07T20:44:21;101314.66;;;-1.74;100.00
39341;BME280;25059;52.132;21.062;2024-03-07T20:47:06;101294.50;;;-1.88;100.00
39341;BME280;25059;52.132;21.062;2024-03-07T20:49:51;101327.75;;;-1.66;100.00
39341;BME280;25059;52.132;21.062;2024-03-07T20:52:38;101323.88;;;-1.82;100.00
39341;BME280;25059;52.132;21.062;2024-03-07T20:55:23;101320.19;;;-1.91;100.00
39341;BME280;25059;52.132;21.062;2024-03-07T20:58:07;101324.44;;;-1.93;100.00
39341;BME280;25059;52.132;21.062;2024-03-07T21:00:53;101317.41;;;-1.99;100.00
39341;BME280;25059;52.132;21.062;2024-03-07T21:03:38;101332.81;;;-2.01;100.00
39341;BME280;25059;52.132;21.062;2024-03-07T21:06:25;101315.31;;;-2.12;100.00
39341;BME280;25059;52.132;21.062;2024-03-07T21:09:10;101314.53;;;-2.10;100.00
39341;BME280;25059;52.132;21.062;2024-03-07T21:11:55;101331.53;;;-1.85;100.00
39341;BME280;25059;52.132;21.062;2024-03-07T21:14:40;101333.72;;;-1.67;100.00
39341;BME280;25059;52.132;21.062;2024-03-07T21:17:27;101335.13;;;-1.47;100.00
39341;BME280;25059;52.132;21.062;2024-03-07T21:20:14;101320.22;;;-1.58;100.00
39341;BME280;25059;52.132;21.062;2024-03-07T21:23:02;101290.38;;;-1.82;100.00
39341;BME280;25059;52.132;21.062;2024-03-07T21:25:51;101331.19;;;-1.66;100.00
39341;BME280;25059;52.132;21.062;2024-03-07T21:28:36;101297.13;;;-1.87;100.00
39341;BME280;25059;52.132;21.062;2024-03-07T21:31:21;101322.19;;;-1.81;100.00
39341;BME280;25059;52.132;21.062;2024-03-07T21:34:05;101317.38;;;-2.01;100.00
39341;BME280;25059;52.132;21.062;2024-03-07T21:36:51;101324.75;;;-2.13;100.00
39341;BME280;25059;52.132;21.062;2024-03-07T21:39:35;101331.06;;;-2.02;100.00
39341;BME280;25059;52.132;21.062;2024-03-07T21:42:20;101336.84;;;-2.10;100.00
39341;BME280;25059;52.132;21.062;2024-03-07T21:45:05;101340.03;;;-2.19;100.00
39341;BME280;25059;52.132;21.062;2024-03-07T21:47:49;101338.81;;;-2.32;100.00
39341;BME280;25059;52.132;21.062;2024-03-07T21:50:34;101343.59;;;-2.44;100.00
39341;BME280;25059;52.132;21.062;2024-03-07T21:53:20;101335.97;;;-2.41;100.00
39341;BME280;25059;52.132;21.062;2024-03-07T21:56:05;101327.47;;;-2.38;100.00
39341;BME280;25059;52.132;21.062;2024-03-07T21:58:50;101337.03;;;-2.34;100.00
39341;BME280;25059;52.132;21.062;2024-03-07T22:01:35;101334.41;;;-2.36;100.00
